createdAt,value
2023-05-23T00:01:43.384Z,1.00
2023-05-23T00:04:10.977Z,1.00
2023-05-23T00:06:38.959Z,1.00
2023-05-23T00:09:06.236Z,1.00
2023-05-23T00:11:33.239Z,1.00
2023-05-23T00:14:01.390Z,1.00
2023-05-23T00:16:28.837Z,1.00
2023-05-23T00:18:57.787Z,1.00
2023-05-23T00:21:25.034Z,1.00
2023-05-23T00:23:51.954Z,1.00
2023-05-23T00:26:18.873Z,1.00
2023-05-23T00:28:45.798Z,1.00
2023-05-23T00:31:12.803Z,1.00
2023-05-23T00:33:39.735Z,1.00
2023-05-23T05:00:43.256Z,25.50
2023-05-23T05:03:12.143Z,17.60
2023-05-23T05:05:39.098Z,9.10
2023-05-23T05:08:06.104Z,19.00
2023-05-23T05:10:33.286Z,1.80
2023-05-23T05:13:00.176Z,4.70
2023-05-23T05:15:27.138Z,1.00
2023-05-23T05:17:54.392Z,3.60
2023-05-23T05:20:21.815Z,1.00
2023-05-23T05:22:57.655Z,1.00
2023-05-23T05:25:25.013Z,1.00
2023-05-23T05:27:52.747Z,1.00
2023-05-23T05:30:20.118Z,1.00
2023-05-23T05:32:47.842Z,1.00
2023-05-23T05:35:14.898Z,1.00
2023-05-23T05:37:41.834Z,1.00
2023-05-23T05:40:10.026Z,1.00
2023-05-23T05:42:36.991Z,1.00
2023-05-23T05:45:04.241Z,1.00
2023-05-23T05:47:31.226Z,1.00
2023-05-23T05:49:58.136Z,1.00
2023-05-23T05:52:25.087Z,1.00
2023-05-23T05:54:52.089Z,1.00
2023-05-23T05:57:18.991Z,1.00
2023-05-23T05:59:46.183Z,1.00
2023-05-23T06:02:13.145Z,1.00
2023-05-23T06:04:40.053Z,1.00
2023-05-23T06:07:07.025Z,1.00
2023-05-23T06:09:33.923Z,1.00
2023-05-23T06:12:01.362Z,1.00
2023-05-23T06:14:28.266Z,1.00
2023-05-23T06:16:55.659Z,1.00
2023-05-23T06:19:22.675Z,1.00
2023-05-23T06:21:50.554Z,1.00
2023-05-23T06:24:17.538Z,1.00
2023-05-23T06:26:44.472Z,1.00
2023-05-23T06:29:11.433Z,1.00
2023-05-23T06:31:38.359Z,1.00
2023-05-23T06:34:05.297Z,1.00
2023-05-23T06:36:32.269Z,1.00
2023-05-23T06:38:59.144Z,1.00
2023-05-23T06:41:26.096Z,1.00
2023-05-23T06:43:53.256Z,1.00
2023-05-23T06:46:20.377Z,1.00
2023-05-23T06:48:47.388Z,1.00
2023-05-23T06:51:14.368Z,1.00
2023-05-23T06:53:41.295Z,1.00
2023-05-23T06:56:08.235Z,1.00
2023-05-23T06:58:35.299Z,1.00
2023-05-23T07:01:02.225Z,1.00
2023-05-23T07:03:29.202Z,1.00
2023-05-23T07:05:56.423Z,1.00
2023-05-23T07:08:23.520Z,1.00
2023-05-23T07:10:50.767Z,1.00
2023-05-23T07:13:17.719Z,1.00
2023-05-23T07:15:44.658Z,1.00
2023-05-23T07:18:11.779Z,1.00
2023-05-23T07:20:38.868Z,1.00
2023-05-23T07:23:05.980Z,1.00
2023-05-23T07:25:32.951Z,1.00
2023-05-23T07:28:00.296Z,1.00
2023-05-23T07:30:27.226Z,1.00
2023-05-23T07:32:55.483Z,1.00
2023-05-23T07:35:26.234Z,1.00
2023-05-23T07:37:53.741Z,1.00
2023-05-23T07:40:21.305Z,1.00
2023-05-23T07:42:48.338Z,1.00
2023-05-23T07:45:15.262Z,1.00
2023-05-23T07:47:42.785Z,1.00
2023-05-23T07:50:09.975Z,1.00
2023-05-23T07:52:36.895Z,99.90
2023-05-23T07:55:04.089Z,99.90
2023-05-23T07:57:31.833Z,99.90
2023-05-23T07:59:58.877Z,99.90
2023-05-23T08:02:25.987Z,99.90
2023-05-23T08:04:53.594Z,99.90
2023-05-23T08:07:21.935Z,99.90
2023-05-23T08:09:48.922Z,99.90
2023-05-23T08:12:15.961Z,99.90
2023-05-23T08:17:16.582Z,99.90
2023-05-23T08:19:44.026Z,99.90
2023-05-23T08:22:10.987Z,99.90
2023-05-23T08:24:37.944Z,99.90
2023-05-23T08:27:05.265Z,99.90
2023-05-23T08:29:32.239Z,99.90
2023-05-23T08:31:59.193Z,99.90
2023-05-23T08:34:26.170Z,99.90
2023-05-23T08:36:53.173Z,99.90
2023-05-23T08:39:20.103Z,99.90
2023-05-23T08:41:47.328Z,99.90
2023-05-23T08:44:14.486Z,99.90
2023-05-23T08:46:46.276Z,99.90
2023-05-23T08:49:17.851Z,99.90
2023-05-23T08:51:45.664Z,99.90
2023-05-23T08:54:15.617Z,99.90
2023-05-23T08:56:44.724Z,99.90
2023-05-23T08:59:13.146Z,99.90
2023-05-23T09:01:41.801Z,99.90
2023-05-23T09:04:09.642Z,99.90
2023-05-23T09:06:36.818Z,99.90
2023-05-23T09:09:04.573Z,99.90
2023-05-23T09:11:36.125Z,99.90
2023-05-23T09:14:05.398Z,99.90
2023-05-23T09:16:35.063Z,99.90
2023-05-23T09:19:12.247Z,99.90
2023-05-23T09:21:45.975Z,99.90
2023-05-23T09:24:13.215Z,99.90
2023-05-23T09:26:40.278Z,99.90
2023-05-23T09:29:07.773Z,99.90
2023-05-23T09:31:35.037Z,99.90
2023-05-23T09:34:02.458Z,99.90
2023-05-23T09:36:33.855Z,99.90
2023-05-23T09:39:08.143Z,99.90
2023-05-23T09:41:35.781Z,99.90
2023-05-23T09:44:08.581Z,99.90
2023-05-23T09:46:38.911Z,99.90
2023-05-23T09:49:18.580Z,99.90
2023-05-23T09:52:00.918Z,99.90
2023-05-23T09:54:27.964Z,99.90
2023-05-23T09:56:57.206Z,99.90
2023-05-23T09:59:28.503Z,99.90
2023-05-23T10:01:57.544Z,99.90
2023-05-23T10:04:27.038Z,99.90
2023-05-23T10:07:00.249Z,99.90
2023-05-23T10:09:33.199Z,99.90
2023-05-23T10:12:12.084Z,99.90
2023-05-23T10:14:44.069Z,99.90
2023-05-23T10:17:28.097Z,99.90
2023-05-23T10:20:02.750Z,99.90
2023-05-23T10:22:29.971Z,99.90
2023-05-23T10:24:57.155Z,99.90
2023-05-23T10:27:24.375Z,99.90
2023-05-23T10:29:52.304Z,99.90
2023-05-23T10:32:19.876Z,99.90
2023-05-23T10:35:01.805Z,99.90
2023-05-23T10:37:46.919Z,99.90
2023-05-23T10:40:55.586Z,99.90
2023-05-23T10:43:40.690Z,99.90
2023-05-23T10:46:12.881Z,99.90
2023-05-23T10:48:44.579Z,99.90
2023-05-23T10:51:14.687Z,99.90
2023-05-23T10:53:44.095Z,99.90
2023-05-23T10:56:19.849Z,99.90
2023-05-23T10:58:46.844Z,99.90
2023-05-23T11:01:18.083Z,99.90
2023-05-23T11:03:49.777Z,99.90
2023-05-23T11:06:33.960Z,99.90
2023-05-23T11:09:20.425Z,99.90
2023-05-23T11:12:05.477Z,99.90
2023-05-23T11:14:33.893Z,99.90
2023-05-23T11:17:15.054Z,99.90
2023-05-23T11:19:59.356Z,99.90
2023-05-23T11:22:32.263Z,99.90
2023-05-23T11:25:00.811Z,99.90
2023-05-23T11:27:38.927Z,99.90
2023-05-23T11:30:13.867Z,99.90
2023-05-23T11:32:42.186Z,99.90
2023-05-23T11:35:11.117Z,99.90
2023-05-23T11:37:41.706Z,99.90
2023-05-23T11:40:34.595Z,99.90
2023-05-23T11:43:06.864Z,99.90
2023-05-23T11:45:35.118Z,99.90
2023-05-23T11:48:12.885Z,99.90
2023-05-23T11:50:54.328Z,99.90
2023-05-23T11:53:25.299Z,99.90
2023-05-23T11:56:00.293Z,99.90
2023-05-23T11:58:33.318Z,99.90
2023-05-23T12:01:05.103Z,99.90
2023-05-23T12:03:32.709Z,99.90
2023-05-23T12:06:00.934Z,99.90
2023-05-23T12:08:28.186Z,99.90
2023-05-23T12:10:59.117Z,99.90
2023-05-23T12:13:29.873Z,99.90
2023-05-23T12:15:58.753Z,99.90
2023-05-23T12:18:29.912Z,99.90
2023-05-23T12:21:04.208Z,99.90
2023-05-23T12:23:33.872Z,99.90
2023-05-23T12:26:10.434Z,99.90
2023-05-23T12:28:43.298Z,99.90
2023-05-23T12:31:10.605Z,99.90
2023-05-23T12:33:42.723Z,99.90
2023-05-23T12:36:09.969Z,99.90
2023-05-23T12:38:41.163Z,99.90
2023-05-23T12:41:20.152Z,99.90
2023-05-23T12:43:52.242Z,99.90
2023-05-23T12:46:20.637Z,99.90
2023-05-23T12:48:47.661Z,99.90
2023-05-23T12:51:15.203Z,99.90
2023-05-23T12:53:42.274Z,99.90
2023-05-23T12:56:09.290Z,99.90
2023-05-23T12:58:36.240Z,99.90
2023-05-23T13:01:03.870Z,99.90
2023-05-23T13:03:31.800Z,99.90
2023-05-23T13:05:59.434Z,99.90
2023-05-23T13:08:30.183Z,99.90
2023-05-23T13:10:57.569Z,99.90
2023-05-23T13:13:24.984Z,99.90
2023-05-23T13:15:52.116Z,99.90
2023-05-23T13:18:19.261Z,99.90
2023-05-23T13:20:46.601Z,99.90
2023-05-23T13:23:14.079Z,99.90
2023-05-23T13:25:41.477Z,99.90
2023-05-23T13:28:08.625Z,99.90
2023-05-23T13:30:35.622Z,99.90
2023-05-23T13:33:02.932Z,99.90
2023-05-23T13:35:29.882Z,99.90
2023-05-23T13:37:56.861Z,99.90
2023-05-23T13:40:23.902Z,99.90
2023-05-23T13:42:51.712Z,99.90
2023-05-23T13:45:20.244Z,99.90
2023-05-23T13:47:47.630Z,99.90
2023-05-23T13:50:14.979Z,99.90
2023-05-23T13:52:44.851Z,99.90
2023-05-23T13:55:13.549Z,99.90
2023-05-23T13:57:40.606Z,99.90
2023-05-23T14:00:09.592Z,99.90
2023-05-23T14:02:36.730Z,99.90
2023-05-23T14:05:04.185Z,99.90
2023-05-23T14:07:31.655Z,99.90
2023-05-23T14:09:59.897Z,99.90
2023-05-23T14:12:27.083Z,99.90
2023-05-23T14:14:54.029Z,99.90
2023-05-23T14:17:21.247Z,99.90
2023-05-23T14:19:48.484Z,99.90
2023-05-23T14:22:15.725Z,99.90
2023-05-23T14:24:42.722Z,99.90
2023-05-23T14:27:11.246Z,99.90
2023-05-23T14:29:39.088Z,99.90
2023-05-23T14:32:06.668Z,99.90
2023-05-23T14:34:33.911Z,99.90
2023-05-23T14:37:01.375Z,99.90
2023-05-23T14:39:29.340Z,99.90
2023-05-23T14:41:56.561Z,99.90
2023-05-23T14:44:23.878Z,99.90
2023-05-23T14:46:51.008Z,99.90
2023-05-23T14:49:18.048Z,99.90
2023-05-23T14:51:51.244Z,99.90
2023-05-23T14:54:19.435Z,99.90
2023-05-23T14:56:46.547Z,99.90
2023-05-23T14:59:13.678Z,99.90
2023-05-23T15:01:41.051Z,99.90
2023-05-23T15:04:09.882Z,99.90
2023-05-23T15:06:38.458Z,99.90
2023-05-23T15:09:05.819Z,99.90
2023-05-23T15:11:34.963Z,99.90
2023-05-23T15:14:02.211Z,99.90
2023-05-23T15:16:33.207Z,99.90
2023-05-23T15:19:00.524Z,99.90
2023-05-23T15:21:27.622Z,99.90
2023-05-23T15:23:55.412Z,99.90
2023-05-23T15:26:22.641Z,99.90
2023-05-23T15:28:49.808Z,99.90
2023-05-23T15:31:16.857Z,99.90
2023-05-23T15:33:43.793Z,99.90
2023-05-23T15:36:13.171Z,99.90
2023-05-23T15:38:40.541Z,99.90
2023-05-23T15:41:07.519Z,99.90
2023-05-23T15:43:37.969Z,99.90
2023-05-23T15:46:05.637Z,99.90
2023-05-23T15:48:32.738Z,99.90
2023-05-23T15:50:59.664Z,99.90
2023-05-23T15:53:26.631Z,99.90
2023-05-23T15:55:53.703Z,99.90
2023-05-23T15:58:20.855Z,99.90
2023-05-23T16:00:47.770Z,99.90
2023-05-23T16:03:14.716Z,99.90
2023-05-23T16:05:44.706Z,99.90
2023-05-23T16:08:11.799Z,99.90
2023-05-23T16:10:38.761Z,99.90
2023-05-23T16:13:05.914Z,99.90
2023-05-23T16:15:32.791Z,99.90
2023-05-23T16:18:00.122Z,99.90
2023-05-23T16:20:27.235Z,99.90
2023-05-23T16:22:54.164Z,99.90
2023-05-23T16:25:21.112Z,99.90
2023-05-23T16:27:48.053Z,99.90
2023-05-23T16:30:15.709Z,99.90
2023-05-23T16:32:42.687Z,99.90
2023-05-23T16:35:11.201Z,99.90
2023-05-23T16:37:38.823Z,99.90
2023-05-23T16:40:06.467Z,99.90
2023-05-23T16:42:33.403Z,99.90
2023-05-23T16:45:00.502Z,99.90
2023-05-23T16:47:27.430Z,99.90
2023-05-23T16:49:54.421Z,99.90
2023-05-23T16:52:21.373Z,99.90
2023-05-23T16:54:48.456Z,99.90
2023-05-23T16:57:15.775Z,99.90
2023-05-23T16:59:42.729Z,99.90
2023-05-23T17:02:13.849Z,99.90
2023-05-23T17:04:41.066Z,99.90
2023-05-23T17:07:09.471Z,99.90
2023-05-23T17:09:37.059Z,99.90
2023-05-23T17:12:04.276Z,99.90
2023-05-23T17:14:31.181Z,99.90
2023-05-23T17:16:58.257Z,99.90
2023-05-23T17:19:25.867Z,99.90
2023-05-23T17:21:52.888Z,99.90
2023-05-23T17:24:19.812Z,99.90
2023-05-23T17:26:46.855Z,99.90
2023-05-23T17:29:13.748Z,99.90
2023-05-23T17:31:40.958Z,99.90
2023-05-23T17:34:08.074Z,99.90
2023-05-23T17:36:35.181Z,99.90
2023-05-23T17:39:02.063Z,99.90
2023-05-23T17:41:29.000Z,99.90
2023-05-23T17:43:55.868Z,99.90
2023-05-23T17:46:22.832Z,99.90
2023-05-23T17:48:49.847Z,99.90
2023-05-23T17:51:16.922Z,99.90
2023-05-23T17:53:43.852Z,99.90
2023-05-23T17:56:11.052Z,99.90
2023-05-23T17:58:39.703Z,99.90
2023-05-23T18:01:08.576Z,99.90
2023-05-23T18:03:35.618Z,99.90
2023-05-23T18:06:02.630Z,99.90
2023-05-23T18:08:29.518Z,99.90
2023-05-23T18:10:56.674Z,99.90
2023-05-23T18:13:23.610Z,99.90
2023-05-23T18:15:50.498Z,99.90
2023-05-23T18:18:18.291Z,99.90
2023-05-23T18:20:45.645Z,99.90
2023-05-23T18:23:12.761Z,99.90
2023-05-23T18:25:39.703Z,99.90
2023-05-23T18:28:06.617Z,99.90
2023-05-23T18:30:33.731Z,99.90
2023-05-23T18:33:01.117Z,99.90
2023-05-23T18:35:28.301Z,99.90
2023-05-23T18:37:55.334Z,99.90
2023-05-23T18:40:24.342Z,99.90
2023-05-23T18:42:52.083Z,99.90
2023-05-23T18:45:19.172Z,99.90
2023-05-23T18:47:46.421Z,99.90
2023-05-23T18:50:14.373Z,99.90
2023-05-23T18:52:43.126Z,99.90
2023-05-23T18:55:11.348Z,99.90
2023-05-23T18:57:38.362Z,99.90
2023-05-23T19:00:07.461Z,99.90
2023-05-23T19:02:34.893Z,99.90
2023-05-23T19:05:02.429Z,99.90
2023-05-23T19:07:29.324Z,99.90
2023-05-23T19:09:56.634Z,99.90
2023-05-23T19:12:23.600Z,99.90
2023-05-23T19:14:50.479Z,99.90
2023-05-23T19:17:17.594Z,99.90
2023-05-23T19:19:44.595Z,99.90
2023-05-23T19:22:12.183Z,99.90
2023-05-23T19:24:39.094Z,99.90
2023-05-23T19:27:06.317Z,99.90
2023-05-23T19:29:33.243Z,99.90
2023-05-23T19:32:00.267Z,99.90
2023-05-23T19:34:27.424Z,99.90
2023-05-23T19:36:54.354Z,99.90
2023-05-23T19:39:21.673Z,99.90
2023-05-23T19:41:48.604Z,99.90
2023-05-23T19:44:15.522Z,99.90
2023-05-23T19:46:42.407Z,99.90
2023-05-23T19:49:09.361Z,99.90
2023-05-23T19:51:36.939Z,99.90
2023-05-23T19:54:04.006Z,99.90
2023-05-23T19:56:31.034Z,99.90
2023-05-23T19:58:57.983Z,99.90
2023-05-23T20:01:24.990Z,99.90
2023-05-23T20:03:52.443Z,99.90
2023-05-23T20:06:20.717Z,99.90
2023-05-23T20:08:47.852Z,99.90
2023-05-23T20:11:14.828Z,99.90
2023-05-23T20:13:41.760Z,99.90
2023-05-23T20:16:08.706Z,99.90
2023-05-23T20:18:36.201Z,99.90
2023-05-23T20:21:05.221Z,99.90
2023-05-23T20:23:32.496Z,99.90
2023-05-23T20:26:00.355Z,99.90
2023-05-23T20:28:27.765Z,99.90
2023-05-23T20:30:54.753Z,99.90
2023-05-23T20:33:22.016Z,99.90
2023-05-23T20:35:49.039Z,99.90
2023-05-23T20:38:18.627Z,99.90
2023-05-23T20:40:46.429Z,99.90
2023-05-23T20:43:15.142Z,99.90
2023-05-23T20:45:42.401Z,99.90
2023-05-23T20:48:09.460Z,99.90
2023-05-23T20:50:36.727Z,99.90
2023-05-23T20:53:03.773Z,99.90
2023-05-23T20:55:30.764Z,99.90
2023-05-23T20:57:57.692Z,99.90
2023-05-23T21:00:24.645Z,99.90
2023-05-23T21:02:51.703Z,99.90
2023-05-23T21:05:18.878Z,99.90
2023-05-23T21:08:06.183Z,99.90
2023-05-23T21:10:33.350Z,99.90
2023-05-23T21:13:00.599Z,99.90
2023-05-23T21:15:27.656Z,99.90
2023-05-23T21:17:55.082Z,99.90
2023-05-23T21:20:22.320Z,99.90
2023-05-23T21:22:49.732Z,99.90
2023-05-23T21:25:17.137Z,99.90
2023-05-23T21:27:44.196Z,1.00
2023-05-23T21:30:11.808Z,1.00
2023-05-23T21:32:38.767Z,1.00
2023-05-23T21:35:06.520Z,1.00
2023-05-23T21:37:33.438Z,1.00
2023-05-23T21:40:00.419Z,1.00
2023-05-23T21:42:27.757Z,1.00
2023-05-23T21:44:54.936Z,1.00
2023-05-23T21:47:25.316Z,1.00
2023-05-23T21:49:52.414Z,1.00
2023-05-23T21:52:19.656Z,1.00
2023-05-23T21:54:49.456Z,1.00
2023-05-23T21:57:16.727Z,1.00
2023-05-23T21:59:43.802Z,1.00
2023-05-23T22:02:11.540Z,1.00
2023-05-23T22:04:38.589Z,1.00
2023-05-23T22:07:05.672Z,1.00
2023-05-23T22:09:32.777Z,1.00
2023-05-23T22:11:59.797Z,1.00
2023-05-23T22:14:26.844Z,1.00
2023-05-23T22:16:54.539Z,1.00
2023-05-23T22:19:26.333Z,1.00
2023-05-23T22:21:53.415Z,1.00
2023-05-23T22:24:20.423Z,1.00
2023-05-23T22:26:48.019Z,1.00
2023-05-23T22:29:17.267Z,1.00
2023-05-23T22:31:44.515Z,1.00
2023-05-23T22:34:11.682Z,1.00
2023-05-23T22:36:39.111Z,1.00
2023-05-23T22:39:06.239Z,1.00
2023-05-23T22:41:33.380Z,1.00
2023-05-23T22:44:00.345Z,1.00
2023-05-23T22:46:27.382Z,1.00
2023-05-23T22:48:55.363Z,1.00
2023-05-23T22:51:22.457Z,1.00
2023-05-23T22:53:49.430Z,1.00
2023-05-23T22:56:16.966Z,1.00
2023-05-23T22:58:44.167Z,1.00
2023-05-23T23:01:11.136Z,1.00
2023-05-23T23:03:38.214Z,1.00
2023-05-23T23:06:09.555Z,1.00
2023-05-23T23:08:37.760Z,1.00
2023-05-23T23:11:04.933Z,1.00
2023-05-23T23:13:31.962Z,1.00
2023-05-23T23:15:58.937Z,1.00
2023-05-23T23:18:27.088Z,1.00
2023-05-23T23:20:57.093Z,1.00
2023-05-23T23:23:24.131Z,1.00
2023-05-23T23:25:52.388Z,1.00
2023-05-23T23:28:19.883Z,1.00
2023-05-23T23:30:47.178Z,1.00
2023-05-23T23:33:14.753Z,1.00
2023-05-23T23:35:45.427Z,1.00
2023-05-23T23:38:12.555Z,1.00
2023-05-23T23:40:39.705Z,1.00
2023-05-23T23:43:06.645Z,1.00
2023-05-23T23:45:33.610Z,1.00
2023-05-23T23:48:00.600Z,1.00
2023-05-23T23:50:27.692Z,1.00
2023-05-23T23:52:54.592Z,1.00
2023-05-23T23:55:21.722Z,1.00
2023-05-23T23:57:48.687Z,1.00
